createdAt,value
2018-04-11T00:02:24.930Z,35.50
2018-04-11T00:04:51.926Z,35.10
2018-04-11T00:07:19.005Z,34.40
2018-04-11T00:09:45.976Z,34.50
2018-04-11T00:12:13.014Z,35.80
2018-04-11T00:17:07.141Z,35.70
2018-04-11T00:22:14.683Z,35.20
2018-04-11T00:24:41.692Z,35.00
2018-04-11T00:27:10.382Z,34.80
2018-04-11T00:29:37.418Z,33.60
2018-04-11T00:32:04.434Z,34.20
2018-04-11T00:34:31.776Z,34.10
2018-04-11T00:36:58.820Z,33.90
2018-04-11T00:39:25.824Z,33.70
2018-04-11T00:41:52.837Z,32.20
2018-04-11T00:44:19.872Z,32.30
2018-04-11T00:46:46.872Z,33.30
2018-04-11T00:49:13.875Z,32.50
2018-04-11T00:51:40.924Z,31.50
2018-04-11T00:54:07.938Z,31.80
2018-04-11T00:56:35.916Z,33.10
2018-04-11T00:59:02.963Z,33.00
2018-04-11T01:03:57.055Z,31.30
2018-04-11T01:06:27.682Z,31.10
2018-04-11T01:08:54.687Z,31.50
2018-04-11T01:11:21.693Z,32.30
2018-04-11T01:13:48.728Z,31.80
2018-04-11T01:16:15.721Z,31.40
2018-04-11T01:18:42.722Z,31.80
2018-04-11T01:21:09.795Z,36.00
2018-04-11T01:23:37.742Z,32.30
2018-04-11T01:26:04.751Z,32.40
2018-04-11T01:28:31.777Z,31.40
2018-04-11T01:30:58.784Z,31.90
2018-04-11T01:33:25.774Z,31.20
2018-04-11T01:35:52.818Z,32.70
2018-04-11T01:38:19.833Z,32.30
2018-04-11T01:45:52.424Z,32.90
2018-04-11T01:48:19.423Z,32.70
2018-04-11T01:50:46.459Z,32.00
2018-04-11T01:53:13.466Z,32.60
2018-04-11T01:55:40.470Z,33.60
2018-04-11T01:58:07.503Z,34.10
2018-04-11T02:00:34.502Z,33.50
2018-04-11T02:03:02.323Z,33.40
2018-04-11T02:07:56.445Z,34.40
2018-04-11T02:10:23.449Z,35.50
2018-04-11T02:12:50.485Z,37.10
2018-04-11T02:15:17.482Z,36.00
2018-04-11T02:17:44.482Z,37.60
2018-04-11T02:20:11.524Z,38.50
2018-04-11T02:22:38.508Z,35.20
2018-04-11T02:25:05.514Z,35.10
2018-04-11T02:27:32.538Z,37.40
2018-04-11T02:29:59.548Z,36.50
2018-04-11T02:32:26.554Z,35.40
2018-04-11T02:34:53.594Z,35.30
2018-04-11T02:37:20.590Z,35.20
2018-04-11T02:39:47.604Z,40.80
2018-04-11T02:42:14.636Z,43.90
2018-04-11T02:44:41.615Z,42.50
2018-04-11T02:47:08.600Z,45.90
2018-04-11T02:49:35.638Z,38.90
2018-04-11T02:52:02.638Z,39.60
2018-04-11T02:54:29.632Z,38.50
2018-04-11T02:56:56.676Z,41.40
2018-04-11T02:59:23.694Z,39.40
2018-04-11T03:01:50.693Z,40.60
2018-04-11T03:04:18.687Z,43.40
2018-04-11T03:09:24.221Z,46.10
2018-04-11T03:11:51.690Z,44.50
2018-04-11T03:14:18.918Z,45.60
2018-04-11T03:16:46.392Z,47.20
2018-04-11T03:19:13.401Z,47.60
2018-04-11T03:21:40.392Z,47.80
2018-04-11T03:24:07.415Z,50.30
2018-04-11T03:26:34.410Z,50.80
2018-04-11T03:29:01.414Z,47.70
2018-04-11T03:31:28.457Z,50.70
2018-04-11T03:33:55.823Z,50.50
2018-04-11T03:36:22.820Z,50.80
2018-04-11T03:38:49.849Z,49.80
2018-04-11T03:41:16.844Z,52.70
2018-04-11T03:43:43.861Z,55.90
2018-04-11T03:46:10.909Z,57.40
2018-04-11T03:48:37.896Z,62.80
2018-04-11T03:51:04.896Z,60.90
2018-04-11T03:53:31.929Z,59.60
2018-04-11T03:55:58.934Z,64.60
2018-04-11T03:58:25.927Z,65.10
2018-04-11T04:00:52.956Z,61.90
2018-04-11T04:03:20.485Z,64.00
2018-04-11T04:05:47.481Z,63.20
2018-04-11T04:08:14.497Z,66.50
2018-04-11T04:10:41.926Z,69.60
2018-04-11T04:13:09.917Z,69.30
2018-04-11T04:15:48.889Z,69.20
2018-04-11T04:18:27.716Z,71.30
2018-04-11T04:20:55.192Z,72.30
2018-04-11T04:23:22.194Z,77.90
2018-04-11T04:25:49.488Z,76.50
2018-04-11T04:28:16.547Z,80.20
2018-04-11T04:30:43.560Z,78.30
2018-04-11T04:35:49.071Z,68.70
2018-04-11T04:38:16.069Z,78.20
2018-04-11T04:40:45.777Z,77.00
2018-04-11T04:43:13.126Z,74.60
2018-04-11T04:45:40.122Z,74.50
2018-04-11T04:48:08.084Z,74.10
2018-04-11T04:50:35.112Z,61.10
2018-04-11T04:58:08.444Z,75.90
2018-04-11T05:00:36.358Z,74.50
2018-04-11T05:03:10.668Z,75.50
2018-04-11T05:05:44.294Z,75.70
2018-04-11T05:08:11.297Z,72.00
2018-04-11T05:10:38.367Z,72.30
2018-04-11T05:15:40.226Z,73.90
2018-04-11T05:18:07.313Z,77.20
2018-04-11T05:20:34.302Z,75.80
2018-04-11T05:23:03.421Z,70.30
2018-04-11T05:25:28.689Z,71.20
2018-04-11T05:27:55.663Z,69.50
2018-04-11T05:30:25.421Z,70.60
2018-04-11T05:32:53.720Z,67.40
2018-04-11T05:35:21.049Z,63.60
2018-04-11T05:37:48.039Z,62.90
2018-04-11T05:40:15.084Z,64.80
2018-04-11T05:42:43.030Z,64.80
2018-04-11T05:45:10.041Z,60.10
2018-04-11T05:47:37.059Z,65.20
2018-04-11T05:50:04.053Z,64.60
2018-04-11T05:52:31.364Z,61.10
2018-04-11T05:54:59.777Z,52.30
2018-04-11T05:57:27.233Z,53.70
2018-04-11T05:59:54.236Z,53.30
2018-04-11T06:02:21.933Z,51.90
2018-04-11T06:04:48.963Z,49.40
2018-04-11T06:07:16.545Z,51.90
2018-04-11T06:12:23.574Z,58.60
2018-04-11T06:14:51.064Z,56.80
2018-04-11T06:17:18.060Z,57.60
2018-04-11T06:19:46.808Z,60.60
2018-04-11T06:22:13.848Z,60.90
2018-04-11T06:24:43.307Z,59.90
2018-04-11T06:27:10.309Z,59.00
2018-04-11T06:29:37.358Z,58.00
2018-04-11T06:32:05.079Z,55.50
2018-04-11T06:34:32.070Z,51.60
2018-04-11T06:36:59.104Z,51.80
2018-04-11T06:39:26.126Z,49.20
2018-04-11T06:41:53.113Z,49.10
2018-04-11T06:44:21.077Z,48.90
2018-04-11T06:46:50.119Z,49.40
2018-04-11T06:49:18.071Z,49.70
2018-04-11T06:51:45.857Z,45.30
2018-04-11T06:54:12.867Z,44.70
2018-04-11T06:56:40.625Z,46.60
2018-04-11T06:59:07.667Z,49.60
2018-04-11T07:04:03.140Z,49.40
2018-04-11T07:06:31.139Z,48.00
2018-04-11T07:08:59.174Z,46.30
2018-04-11T07:11:26.200Z,44.90
2018-04-11T07:13:54.210Z,44.00
2018-04-11T07:16:22.168Z,42.60
2018-04-11T07:18:50.078Z,43.90
2018-04-11T07:28:50.126Z,43.10
2018-04-11T07:31:17.170Z,41.60
2018-04-11T07:33:44.182Z,40.30
2018-04-11T07:36:11.250Z,40.00
2018-04-11T07:38:38.280Z,38.90
2018-04-11T07:41:06.142Z,39.10
2018-04-11T07:43:33.180Z,37.60
2018-04-11T07:46:02.079Z,37.50
2018-04-11T07:48:29.072Z,33.40
2018-04-11T07:50:56.172Z,34.90
2018-04-11T07:53:23.660Z,33.00
2018-04-11T07:58:17.841Z,25.50
2018-04-11T08:00:44.843Z,30.30
2018-04-11T08:03:13.641Z,37.10
2018-04-11T08:05:40.654Z,36.40
2018-04-11T08:08:07.690Z,35.00
2018-04-11T08:10:35.539Z,31.30
2018-04-11T08:13:03.372Z,27.60
2018-04-11T08:15:30.380Z,25.90
2018-04-11T08:17:57.426Z,26.20
2018-04-11T08:20:24.444Z,24.20
2018-04-11T08:25:20.224Z,24.20
2018-04-11T08:27:47.314Z,24.10
2018-04-11T08:30:15.167Z,23.80
2018-04-11T08:35:23.464Z,23.60
2018-04-11T08:37:51.314Z,26.80
2018-04-11T08:40:18.334Z,28.80
2018-04-11T08:42:45.387Z,28.00
2018-04-11T08:45:12.397Z,28.60
2018-04-11T08:47:39.404Z,23.80
2018-04-11T08:50:06.437Z,20.50
2018-04-11T08:52:33.555Z,22.20
2018-04-11T08:55:01.455Z,23.10
2018-04-11T08:57:28.492Z,21.70
2018-04-11T08:59:56.666Z,23.50
2018-04-11T09:02:24.530Z,24.10
2018-04-11T09:04:51.574Z,22.20
2018-04-11T09:07:19.449Z,20.40
2018-04-11T09:09:47.432Z,21.10
2018-04-11T09:12:14.454Z,21.20
2018-04-11T09:14:42.420Z,19.30
2018-04-11T09:17:09.424Z,20.40
2018-04-11T09:19:36.490Z,18.80
2018-04-11T09:22:03.468Z,20.10
2018-04-11T09:24:30.464Z,19.40
2018-04-11T09:26:58.324Z,18.90
2018-04-11T09:29:25.342Z,18.90
2018-04-11T09:31:52.354Z,21.20
2018-04-11T09:36:47.649Z,20.10
2018-04-11T09:39:14.661Z,20.40
2018-04-11T09:41:41.694Z,21.40
2018-04-11T09:44:08.705Z,20.30
2018-04-11T09:46:35.733Z,20.00
2018-04-11T09:49:02.787Z,20.50
2018-04-11T09:51:29.839Z,21.40
2018-04-11T09:56:24.895Z,19.90
2018-04-11T10:01:30.409Z,20.30
2018-04-11T10:06:24.500Z,20.10
2018-04-11T10:08:51.524Z,19.60
2018-04-11T10:11:19.483Z,19.50
2018-04-11T10:13:46.482Z,19.50
2018-04-11T10:16:14.353Z,19.50
2018-04-11T10:18:41.360Z,18.80
2018-04-11T10:21:09.177Z,18.80
2018-04-11T10:23:37.657Z,17.70
2018-04-11T10:26:04.651Z,18.10
2018-04-11T10:30:58.758Z,18.00
2018-04-11T10:33:25.749Z,18.00
2018-04-11T10:35:52.737Z,17.50
2018-04-11T10:38:19.784Z,17.90
2018-04-11T10:43:13.877Z,16.70
2018-04-11T10:45:40.913Z,18.60
2018-04-11T10:50:36.242Z,16.90
2018-04-11T10:53:03.265Z,18.00
2018-04-11T10:55:30.280Z,18.20
2018-04-11T10:57:57.280Z,18.70
2018-04-11T11:02:51.403Z,17.40
2018-04-11T11:05:18.390Z,17.80
2018-04-11T11:07:45.416Z,19.10
2018-04-11T11:10:13.375Z,17.60
2018-04-11T11:12:40.420Z,18.30
2018-04-11T11:15:07.465Z,18.20
2018-04-11T11:17:34.477Z,17.80
2018-04-11T11:22:29.555Z,17.00
2018-04-11T11:27:36.017Z,17.40
2018-04-11T11:30:03.011Z,17.30
2018-04-11T11:32:30.005Z,16.00
2018-04-11T11:34:57.053Z,16.40
2018-04-11T11:37:24.928Z,16.60
2018-04-11T11:39:51.939Z,16.60
2018-04-11T11:42:18.972Z,16.30
2018-04-11T11:44:45.963Z,17.40
2018-04-11T11:47:12.956Z,16.70
2018-04-11T11:49:40.004Z,18.40
2018-04-11T11:52:07.007Z,17.60
2018-04-11T11:54:33.981Z,17.40
2018-04-11T11:59:28.096Z,17.40
2018-04-11T12:01:55.087Z,18.40
2018-04-11T12:04:22.980Z,17.70
2018-04-11T12:06:49.988Z,18.70
2018-04-11T12:09:16.984Z,18.30
2018-04-11T12:11:44.017Z,19.50
2018-04-11T12:16:38.145Z,19.40
2018-04-11T12:19:05.159Z,19.00
2018-04-11T12:26:26.389Z,19.00
2018-04-11T12:28:54.360Z,19.60
2018-04-11T12:31:22.216Z,18.50
2018-04-11T12:33:49.266Z,18.50
2018-04-11T12:36:16.288Z,19.70
2018-04-11T12:38:44.174Z,19.50
2018-04-11T12:43:49.675Z,20.20
2018-04-11T12:46:16.711Z,19.90
2018-04-11T12:48:43.703Z,20.20
2018-04-11T12:51:11.606Z,20.10
2018-04-11T12:56:05.815Z,19.80
2018-04-11T12:58:32.871Z,19.80
2018-04-11T13:01:00.290Z,20.60
2018-04-11T13:03:27.594Z,22.10
2018-04-11T13:05:55.553Z,21.40
2018-04-11T13:08:22.585Z,21.10
2018-04-11T13:10:50.934Z,21.80
2018-04-11T13:13:17.934Z,21.90
2018-04-11T13:15:44.975Z,22.10
2018-04-11T13:18:11.980Z,22.70
2018-04-11T13:20:38.984Z,22.00
2018-04-11T13:23:06.032Z,22.50
2018-04-11T13:25:33.875Z,22.30
2018-04-11T13:28:00.872Z,22.20
2018-04-11T13:30:27.914Z,22.80
2018-04-11T13:32:55.855Z,23.00
2018-04-11T13:35:23.708Z,22.70
2018-04-11T13:37:50.736Z,23.90
2018-04-11T13:40:17.776Z,23.00
2018-04-11T13:42:44.768Z,23.50
2018-04-11T13:45:11.811Z,23.00
2018-04-11T13:47:38.810Z,22.80
2018-04-11T13:50:05.826Z,22.90
2018-04-11T13:52:32.883Z,22.30
2018-04-11T13:54:59.895Z,23.20
2018-04-11T13:57:26.892Z,22.10
2018-04-11T13:59:53.927Z,22.90
2018-04-11T14:02:20.930Z,22.40
2018-04-11T14:04:47.926Z,22.10
2018-04-11T14:09:54.611Z,23.10
2018-04-11T14:12:21.404Z,22.90
2018-04-11T14:14:48.401Z,22.80
2018-04-11T14:17:15.441Z,22.60
2018-04-11T14:19:42.459Z,23.00
2018-04-11T14:24:36.575Z,24.00
2018-04-11T14:27:04.352Z,23.20
2018-04-11T14:29:31.358Z,22.70
2018-04-11T14:34:25.498Z,23.20
2018-04-11T14:36:53.243Z,22.90
2018-04-11T14:39:21.086Z,22.70
2018-04-11T14:41:48.144Z,23.90
2018-04-11T14:44:15.134Z,23.70
2018-04-11T14:46:42.151Z,23.60
2018-04-11T14:49:10.102Z,24.00
2018-04-11T14:51:37.089Z,23.70
2018-04-11T14:54:05.059Z,23.90
2018-04-11T14:56:32.053Z,24.40
2018-04-11T14:58:59.053Z,24.60
2018-04-11T15:01:26.057Z,24.30
2018-04-11T15:03:53.917Z,24.00
2018-04-11T15:06:20.922Z,24.20
2018-04-11T15:08:47.926Z,24.90
2018-04-11T15:11:15.800Z,24.80
2018-04-11T15:13:42.815Z,24.90
2018-04-11T15:16:11.717Z,25.10
2018-04-11T15:18:39.706Z,25.50
2018-04-11T15:21:06.702Z,25.00
2018-04-11T15:26:00.849Z,24.60
2018-04-11T15:28:27.851Z,24.80
2018-04-11T15:33:22.081Z,25.30
2018-04-11T15:38:27.904Z,24.90
2018-04-11T15:40:55.774Z,25.10
2018-04-11T15:43:23.692Z,25.30
2018-04-11T15:45:50.692Z,25.70
2018-04-11T15:48:17.680Z,25.50
2018-04-11T15:50:44.709Z,25.70
2018-04-11T15:53:12.548Z,26.00
2018-04-11T15:55:39.977Z,27.00
2018-04-11T15:58:06.971Z,26.10
2018-04-11T16:00:34.010Z,26.50
2018-04-11T16:03:01.018Z,26.30
2018-04-11T16:05:28.034Z,25.80
2018-04-11T16:07:55.112Z,25.70
2018-04-11T16:10:22.112Z,26.60
2018-04-11T16:12:49.151Z,26.80
2018-04-11T16:15:16.197Z,27.00
2018-04-11T16:17:43.218Z,27.10
2018-04-11T16:20:10.216Z,27.00
2018-04-11T16:22:37.261Z,27.70
2018-04-11T16:25:04.271Z,27.50
2018-04-11T16:27:31.272Z,27.10
2018-04-11T16:29:59.159Z,27.40
2018-04-11T16:34:54.198Z,28.10
2018-04-11T16:37:21.255Z,28.50
2018-04-11T16:39:49.079Z,28.10
2018-04-11T16:42:17.025Z,29.20
2018-04-11T16:44:44.055Z,29.00
2018-04-11T16:47:11.482Z,29.70
2018-04-11T16:49:38.491Z,29.00
2018-04-11T16:52:06.480Z,29.10
2018-04-11T16:54:33.477Z,29.80
2018-04-11T16:59:41.566Z,30.00
2018-04-11T17:02:08.567Z,30.10
2018-04-11T17:04:35.572Z,29.50
2018-04-11T17:07:02.608Z,29.10
2018-04-11T17:09:29.603Z,29.60
2018-04-11T17:11:56.612Z,29.70
2018-04-11T17:14:23.662Z,30.20
2018-04-11T17:16:50.672Z,30.40
2018-04-11T17:19:17.673Z,30.00
2018-04-11T17:21:56.602Z,29.50
2018-04-11T17:24:35.321Z,29.40
2018-04-11T17:27:14.093Z,30.10
2018-04-11T17:29:52.971Z,29.60
2018-04-11T17:32:20.008Z,29.80
2018-04-11T17:34:47.905Z,30.40
2018-04-11T17:37:14.929Z,30.10
2018-04-11T17:39:41.968Z,30.90
2018-04-11T17:44:36.046Z,30.40
2018-04-11T17:47:03.108Z,30.20
2018-04-11T17:49:33.237Z,30.40
2018-04-11T17:51:57.470Z,30.90
2018-04-11T17:54:24.502Z,30.40
2018-04-11T17:56:51.501Z,30.70
2018-04-11T17:59:18.484Z,30.70
2018-04-11T18:01:45.493Z,30.70
2018-04-11T18:04:12.640Z,30.90
2018-04-11T18:06:39.603Z,30.40
2018-04-11T18:09:06.632Z,30.90
2018-04-11T18:11:33.658Z,31.10
2018-04-11T18:14:00.663Z,30.40
2018-04-11T18:16:27.701Z,31.70
2018-04-11T18:21:32.808Z,31.10
2018-04-11T18:24:06.580Z,30.70
2018-04-11T18:26:32.932Z,30.50
2018-04-11T18:29:00.183Z,31.00
2018-04-11T18:31:27.231Z,30.50
2018-04-11T18:33:54.180Z,30.80
2018-04-11T18:36:21.176Z,30.40
2018-04-11T18:38:48.374Z,30.50
2018-04-11T18:41:15.751Z,30.90
2018-04-11T18:43:43.104Z,30.60
2018-04-11T18:46:11.050Z,31.00
2018-04-11T18:48:38.399Z,30.40
2018-04-11T18:51:05.322Z,30.40
2018-04-11T18:53:32.467Z,30.70
2018-04-11T18:58:37.648Z,31.00
2018-04-11T19:01:04.924Z,30.80
2018-04-11T19:03:31.920Z,30.70
2018-04-11T19:05:58.864Z,30.90
2018-04-11T19:08:25.879Z,31.00
2018-04-11T19:10:52.882Z,31.00
2018-04-11T19:13:19.879Z,30.80
2018-04-11T19:15:47.118Z,30.90
2018-04-11T19:20:52.344Z,31.60
2018-04-11T19:23:19.331Z,31.40
2018-04-11T19:25:46.332Z,31.50
2018-04-11T19:28:13.356Z,31.50
2018-04-11T19:30:40.356Z,31.70
2018-04-11T19:33:07.340Z,31.80
2018-04-11T19:35:35.315Z,31.60
2018-04-11T19:38:03.321Z,31.50
2018-04-11T19:40:30.271Z,31.80
2018-04-11T19:42:57.332Z,32.30
2018-04-11T19:45:24.319Z,32.20
2018-04-11T19:50:18.609Z,33.30
2018-04-11T19:52:45.612Z,33.30
2018-04-11T19:55:12.609Z,33.40
2018-04-11T19:57:39.639Z,33.20
2018-04-11T20:00:06.617Z,33.70
2018-04-11T20:02:33.615Z,33.90
2018-04-11T20:05:00.706Z,33.70
2018-04-11T20:07:27.678Z,34.00
2018-04-11T20:09:54.672Z,34.10
2018-04-11T20:12:21.703Z,34.30
2018-04-11T20:14:48.713Z,34.70
2018-04-11T20:17:15.796Z,34.70
2018-04-11T20:19:42.773Z,34.70
2018-04-11T20:22:09.797Z,34.70
2018-04-11T20:24:36.780Z,35.00
2018-04-11T20:27:03.765Z,35.30
2018-04-11T20:29:31.136Z,35.20
2018-04-11T20:31:58.084Z,35.70
2018-04-11T20:34:25.096Z,35.40
2018-04-11T20:36:52.119Z,35.60
2018-04-11T20:39:19.710Z,35.30
2018-04-11T20:44:25.205Z,35.40
2018-04-11T20:46:52.213Z,35.70
2018-04-11T20:49:19.197Z,35.10
2018-04-11T20:51:46.216Z,35.40
2018-04-11T20:54:13.192Z,35.50
2018-04-11T20:56:40.177Z,35.40
2018-04-11T20:59:07.694Z,35.30
2018-04-11T21:01:34.473Z,35.60
2018-04-11T21:04:01.466Z,35.30
2018-04-11T21:06:28.481Z,35.30
2018-04-11T21:08:55.466Z,35.10
2018-04-11T21:11:22.445Z,34.90
2018-04-11T21:13:49.498Z,34.50
2018-04-11T21:16:16.488Z,34.90
2018-04-11T21:21:24.875Z,34.90
2018-04-11T21:23:52.065Z,34.60
2018-04-11T21:26:19.013Z,34.70
2018-04-11T21:28:46.982Z,34.80
2018-04-11T21:33:41.870Z,35.30
2018-04-11T21:36:08.949Z,35.50
2018-04-11T21:38:35.972Z,35.50
2018-04-11T21:41:03.005Z,35.50
2018-04-11T21:43:30.449Z,35.90
2018-04-11T21:45:57.449Z,36.20
2018-04-11T21:48:24.443Z,36.30
2018-04-11T21:50:52.336Z,36.00
2018-04-11T21:53:20.690Z,35.90
2018-04-11T21:55:47.149Z,36.10
2018-04-11T22:00:41.691Z,36.90
2018-04-11T22:03:08.691Z,37.50
2018-04-11T22:05:35.743Z,37.50
2018-04-11T22:08:02.740Z,37.90
2018-04-11T22:10:30.564Z,37.40
2018-04-11T22:12:57.592Z,37.80
2018-04-11T22:15:25.447Z,38.00
2018-04-11T22:17:52.496Z,38.20
2018-04-11T22:20:19.499Z,38.20
2018-04-11T22:22:47.328Z,38.60
2018-04-11T22:27:45.268Z,39.00
2018-04-11T22:30:12.267Z,38.60
2018-04-11T22:32:39.249Z,38.50
2018-04-11T22:35:06.300Z,38.50
2018-04-11T22:37:35.325Z,38.50
2018-04-11T22:40:02.280Z,38.30
2018-04-11T22:47:38.664Z,38.90
2018-04-11T22:50:05.650Z,38.40
2018-04-11T22:52:32.638Z,38.50
2018-04-11T22:54:59.666Z,38.10
2018-04-11T22:57:26.679Z,38.80
2018-04-11T22:59:53.682Z,39.30
2018-04-11T23:02:20.722Z,39.60
2018-04-11T23:04:47.718Z,38.30
2018-04-11T23:07:14.712Z,37.60
2018-04-11T23:09:41.764Z,37.60
2018-04-11T23:12:08.758Z,37.20
2018-04-11T23:14:35.766Z,37.50
2018-04-11T23:17:02.810Z,37.70
2018-04-11T23:19:29.815Z,37.80
2018-04-11T23:21:56.817Z,38.20
2018-04-11T23:24:23.847Z,37.90
2018-04-11T23:29:17.921Z,37.60
2018-04-11T23:31:44.961Z,37.90
2018-04-11T23:34:11.975Z,37.80
2018-04-11T23:36:39.581Z,37.50
2018-04-11T23:39:07.860Z,37.80
2018-04-11T23:41:34.865Z,37.30
2018-04-11T23:44:01.862Z,37.80
2018-04-11T23:46:28.899Z,36.30
2018-04-11T23:48:55.886Z,36.70
2018-04-11T23:51:22.867Z,36.80
2018-04-11T23:53:49.904Z,36.80
2018-04-11T23:56:17.869Z,37.40
2018-04-11T23:58:44.867Z,36.40
